createdAt,value
2022-11-22T00:02:06.992Z,31.00
2022-11-22T00:04:53.519Z,25.73
2022-11-22T00:07:40.501Z,21.10
2022-11-22T00:10:27.481Z,29.07
2022-11-22T00:13:14.127Z,26.93
2022-11-22T00:16:04.531Z,23.60
2022-11-22T00:18:51.143Z,25.40
2022-11-22T00:21:37.995Z,26.10
2022-11-22T00:24:24.758Z,24.60
2022-11-22T00:27:11.496Z,21.73
2022-11-22T00:29:58.221Z,26.73
2022-11-22T00:32:46.491Z,22.33
2022-11-22T00:35:32.958Z,23.70
2022-11-22T00:38:19.691Z,20.67
2022-11-22T00:41:06.698Z,21.87
2022-11-22T00:43:53.439Z,20.73
2022-11-22T00:46:39.979Z,18.43
2022-11-22T00:49:28.269Z,18.40
2022-11-22T00:52:15.283Z,22.43
2022-11-22T00:55:01.756Z,22.40
2022-11-22T00:57:48.673Z,22.73
2022-11-22T01:00:35.775Z,17.17
2022-11-22T01:03:22.402Z,22.47
2022-11-22T01:06:10.636Z,24.47
2022-11-22T01:08:57.622Z,24.00
2022-11-22T01:11:44.563Z,24.87
2022-11-22T01:14:31.201Z,24.73
2022-11-22T01:17:18.172Z,22.80
2022-11-22T01:20:06.179Z,22.47
2022-11-22T01:22:54.138Z,24.10
2022-11-22T01:25:44.865Z,23.97
2022-11-22T01:28:31.698Z,18.43
2022-11-22T01:31:18.530Z,16.60
2022-11-22T01:34:07.062Z,18.43
2022-11-22T01:36:53.580Z,21.10
2022-11-22T01:39:41.904Z,21.60
2022-11-22T01:42:43.864Z,24.03
2022-11-22T01:45:48.697Z,18.17
2022-11-22T01:48:52.216Z,19.40
2022-11-22T01:51:41.570Z,16.17
2022-11-22T01:54:33.555Z,20.10
2022-11-22T01:57:25.389Z,18.43
2022-11-22T02:00:16.292Z,15.20
2022-11-22T02:03:08.972Z,16.47
2022-11-22T02:05:56.283Z,19.47
2022-11-22T02:08:50.731Z,18.57
2022-11-22T02:11:39.255Z,16.67
2022-11-22T02:14:28.808Z,15.57
2022-11-22T02:17:15.342Z,18.57
2022-11-22T02:20:02.094Z,21.40
2022-11-22T02:22:56.904Z,19.83
2022-11-22T02:25:53.936Z,18.50
2022-11-22T02:28:41.693Z,21.03
2022-11-22T02:31:45.000Z,21.70
2022-11-22T02:34:42.778Z,21.37
2022-11-22T02:37:32.434Z,20.97
2022-11-22T02:40:20.875Z,22.90
2022-11-22T02:43:12.687Z,19.60
2022-11-22T02:46:04.884Z,16.60
2022-11-22T02:48:52.065Z,21.60
2022-11-22T02:51:38.824Z,17.63
2022-11-22T02:54:25.756Z,19.43
2022-11-22T02:57:12.726Z,19.33
2022-11-22T03:00:00.775Z,21.57
2022-11-22T03:02:47.711Z,18.77
2022-11-22T03:05:34.808Z,26.77
2022-11-22T03:08:21.196Z,20.30
2022-11-22T03:11:08.066Z,29.27
2022-11-22T03:13:55.006Z,20.67
2022-11-22T03:16:43.476Z,30.50
2022-11-22T03:19:30.069Z,21.73
2022-11-22T03:22:16.771Z,24.33
2022-11-22T03:25:03.411Z,24.50
2022-11-22T03:27:50.466Z,28.87
2022-11-22T03:30:40.815Z,19.23
2022-11-22T03:33:28.825Z,24.53
2022-11-22T03:36:15.608Z,23.70
2022-11-22T03:39:02.316Z,22.03
2022-11-22T03:41:49.156Z,19.40
2022-11-22T03:44:35.830Z,21.37
2022-11-22T03:47:22.645Z,29.83
2022-11-22T03:50:11.271Z,23.70
2022-11-22T03:52:57.956Z,21.33
2022-11-22T03:55:44.698Z,22.20
2022-11-22T03:58:31.819Z,29.43
2022-11-22T04:01:18.355Z,22.50
2022-11-22T04:04:05.041Z,22.20
2022-11-22T04:06:53.153Z,19.30
2022-11-22T04:09:40.221Z,26.90
2022-11-22T04:12:26.953Z,20.47
2022-11-22T04:15:12.767Z,29.73
2022-11-22T04:17:59.692Z,27.00
2022-11-22T04:21:03.990Z,27.50
2022-11-22T04:24:12.081Z,26.07
2022-11-22T04:26:58.039Z,24.03
2022-11-22T04:29:44.843Z,26.17
2022-11-22T04:32:48.703Z,21.70
2022-11-22T04:35:35.359Z,26.67
2022-11-22T04:38:23.209Z,19.73
2022-11-22T04:41:11.560Z,31.07
2022-11-22T04:44:15.867Z,28.47
2022-11-22T04:47:02.512Z,15.97
2022-11-22T04:49:49.361Z,27.13
2022-11-22T04:52:53.548Z,29.23
2022-11-22T04:55:40.480Z,25.67
2022-11-22T04:58:28.411Z,25.93
2022-11-22T05:01:15.046Z,26.07
2022-11-22T05:04:01.645Z,20.20
2022-11-22T05:06:48.435Z,25.67
2022-11-22T05:09:35.194Z,30.50
2022-11-22T05:12:22.078Z,25.63
2022-11-22T05:15:11.773Z,27.20
2022-11-22T05:17:58.208Z,26.17
2022-11-22T05:20:45.055Z,29.70
2022-11-22T05:23:49.272Z,30.57
2022-11-22T05:26:37.551Z,28.27
2022-11-22T05:29:24.311Z,27.03
2022-11-22T05:32:12.608Z,30.23
2022-11-22T05:34:59.849Z,27.27
2022-11-22T05:37:46.655Z,29.47
2022-11-22T05:40:33.454Z,31.00
2022-11-22T05:43:20.183Z,27.20
2022-11-22T05:46:09.016Z,28.67
2022-11-22T05:48:58.699Z,22.17
2022-11-22T05:51:45.319Z,34.07
2022-11-22T05:54:32.206Z,31.83
2022-11-22T05:57:18.781Z,35.53
2022-11-22T06:00:06.843Z,28.43
2022-11-22T06:03:01.800Z,31.40
2022-11-22T06:05:53.601Z,27.20
2022-11-22T06:08:43.327Z,32.30
2022-11-22T06:11:29.946Z,35.13
2022-11-22T06:14:16.619Z,30.47
2022-11-22T06:17:03.470Z,30.20
2022-11-22T06:19:50.071Z,35.80
2022-11-22T06:22:38.456Z,37.80
2022-11-22T06:25:25.311Z,30.93
2022-11-22T06:28:11.990Z,32.97
2022-11-22T06:31:02.216Z,35.17
2022-11-22T06:33:49.756Z,28.00
2022-11-22T06:36:38.911Z,28.63
2022-11-22T06:39:26.778Z,32.63
2022-11-22T06:42:13.574Z,36.40
2022-11-22T06:45:00.358Z,30.47
2022-11-22T06:47:47.169Z,35.27
2022-11-22T06:50:33.891Z,34.57
2022-11-22T06:53:39.738Z,42.13
2022-11-22T06:56:30.595Z,33.60
2022-11-22T06:59:17.691Z,35.37
2022-11-22T07:02:06.597Z,34.97
2022-11-22T07:05:23.275Z,35.90
2022-11-22T07:08:06.627Z,45.80
2022-11-22T07:10:57.316Z,40.87
2022-11-22T07:13:46.384Z,64.23
2022-11-22T07:16:33.160Z,37.10
2022-11-22T07:19:19.509Z,39.37
2022-11-22T07:22:06.340Z,31.13
2022-11-22T07:24:53.143Z,39.57
2022-11-22T07:27:40.039Z,40.47
2022-11-22T07:30:28.169Z,36.80
2022-11-22T07:33:14.963Z,41.93
2022-11-22T07:36:05.755Z,34.63
2022-11-22T07:38:52.723Z,43.27
2022-11-22T07:41:39.294Z,40.03
2022-11-22T07:44:26.250Z,35.33
2022-11-22T07:47:18.397Z,40.77
2022-11-22T07:50:09.067Z,35.93
2022-11-22T07:52:59.157Z,45.60
2022-11-22T07:55:46.092Z,42.37
2022-11-22T07:58:33.663Z,40.00
2022-11-22T08:01:21.658Z,36.97
2022-11-22T08:04:09.750Z,42.90
2022-11-22T08:06:56.471Z,42.53
2022-11-22T08:09:43.296Z,35.97
2022-11-22T08:12:30.104Z,45.10
2022-11-22T08:15:17.833Z,39.17
2022-11-22T08:18:04.730Z,37.93
2022-11-22T08:20:52.776Z,35.00
2022-11-22T08:23:40.279Z,38.30
2022-11-22T08:26:27.396Z,39.57
2022-11-22T08:29:14.686Z,40.57
2022-11-22T08:32:01.335Z,29.87
2022-11-22T08:34:48.139Z,36.23
2022-11-22T08:37:36.292Z,39.17
2022-11-22T08:40:22.987Z,36.97
2022-11-22T08:43:09.816Z,33.37
2022-11-22T08:45:58.829Z,43.40
2022-11-22T08:48:46.145Z,39.07
2022-11-22T08:51:33.299Z,44.30
2022-11-22T08:54:21.441Z,37.30
2022-11-22T08:57:08.389Z,45.67
2022-11-22T08:59:55.025Z,44.73
2022-11-22T09:02:41.806Z,45.07
2022-11-22T09:05:29.459Z,41.77
2022-11-22T09:08:23.020Z,45.53
2022-11-22T09:11:13.462Z,40.80
2022-11-22T09:14:01.189Z,29.73
2022-11-22T09:16:47.970Z,44.80
2022-11-22T09:19:34.786Z,35.37
2022-11-22T09:22:25.359Z,41.90
2022-11-22T09:25:14.956Z,38.73
2022-11-22T09:28:03.301Z,48.87
2022-11-22T09:30:49.816Z,44.73
2022-11-22T09:33:38.556Z,45.20
2022-11-22T09:36:27.612Z,36.97
2022-11-22T09:39:17.667Z,34.37
2022-11-22T09:42:25.516Z,41.93
2022-11-22T09:45:38.362Z,47.30
2022-11-22T09:48:44.919Z,35.87
2022-11-22T09:51:45.652Z,43.03
2022-11-22T09:54:43.792Z,46.77
2022-11-22T09:57:38.009Z,52.00
2022-11-22T10:00:30.666Z,45.70
2022-11-22T10:03:25.598Z,38.07
2022-11-22T10:06:20.437Z,46.47
2022-11-22T10:09:21.623Z,49.30
2022-11-22T10:12:16.719Z,40.33
2022-11-22T10:15:09.151Z,44.60
2022-11-22T10:18:01.197Z,41.57
2022-11-22T10:20:49.095Z,52.50
2022-11-22T10:23:36.057Z,44.70
2022-11-22T10:26:26.189Z,44.30
2022-11-22T10:29:34.990Z,55.87
2022-11-22T10:32:42.328Z,40.10
